Time;durP1;ratioP1;P1;durP2;ratioP2;P2;SDS_P1;SDS_P2;PMS_P1;PMS_P2;Temp;Humidity;BMP_temperature;BMP_pressure;BME280_temperature;BME280_humidity;BME280_pressure;Samples;Min_cycle;Max_cycle;Signal;HPM_P1;HPM_P2
2022/01/09 00:01:36;;;;;;;29.25;19.77;;;77.50;2227.20;;;;;;5016689;28;20022;-87
2022/01/09 00:04:01;;;;;;;29.17;20.10;;;77.50;2227.20;;;;;;5016429;28;20064;-83
2022/01/09 00:06:27;;;;;;;30.33;20.10;;;77.50;2227.20;;;;;;5016526;28;20090;-86
2022/01/09 00:08:53;;;;;;;29.70;20.77;;;77.60;2227.20;;;;;;5019511;28;20037;-87
2022/01/09 00:11:25;;;;;;;36.25;23.63;;;77.50;2227.20;;;;;;5019291;28;20120;-87
2022/01/09 00:13:52;;;;;;;40.65;26.52;;;77.60;2227.20;;;;;;5019636;28;20021;-85
2022/01/09 00:16:20;;;;;;;36.47;24.60;;;77.60;2227.20;;;;;;5019553;28;20429;-86
2022/01/09 00:18:46;;;;;;;26.15;18.05;;;77.60;2227.20;;;;;;5019458;28;20025;-85
2022/01/09 00:21:12;;;;;;;26.60;19.52;;;77.70;2227.20;;;;;;5019382;28;20018;-86
2022/01/09 00:23:38;;;;;;;26.25;18.00;;;77.70;2227.20;;;;;;5019126;28;20057;-85
2022/01/09 00:26:06;;;;;;;30.60;20.45;;;77.60;2227.20;;;;;;5036882;28;20112;-88
2022/01/09 00:28:32;;;;;;;30.45;20.98;;;77.70;2227.20;;;;;;5037271;28;20400;-85
2022/01/09 00:30:58;;;;;;;28.42;20.00;;;77.70;2227.20;;;;;;5018955;28;20048;-85
2022/01/09 00:33:24;;;;;;;32.30;22.90;;;77.70;2227.20;;;;;;5019179;28;20063;-86
2022/01/09 00:35:50;;;;;;;36.42;24.50;;;77.70;2073.60;;;;;;5019133;28;20026;-84
2022/01/09 00:38:17;;;;;;;26.00;18.40;;;102.40;2227.20;;;;;;5018947;28;20113;-83
2022/01/09 00:40:43;;;;;;;25.02;17.52;;;77.70;2227.20;;;;;;5019266;28;20124;-84
2022/01/09 00:43:09;;;;;;;28.45;18.55;;;77.60;2227.20;;;;;;5018862;28;20067;-85
2022/01/09 00:45:36;;;;;;;26.02;19.50;;;77.50;2227.20;;;;;;5017773;28;20377;-84
2022/01/09 00:48:02;;;;;;;23.27;17.02;;;77.50;2227.20;;;;;;5018946;28;20022;-86
2022/01/09 00:50:28;;;;;;;25.70;19.08;;;77.40;2227.20;;;;;;5019076;28;20021;-86
2022/01/09 00:52:54;;;;;;;33.25;20.60;;;77.40;2227.20;;;;;;5018748;28;20031;-85
2022/01/09 00:55:20;;;;;;;25.98;18.55;;;77.30;2227.20;;;;;;5036421;28;20517;-84
2022/01/09 00:57:46;;;;;;;27.38;19.13;;;77.30;2176.00;;;;;;5018737;28;20032;-83
2022/01/09 01:00:12;;;;;;;29.13;20.52;;;77.10;2227.20;;;;;;5018370;28;20089;-84
2022/01/09 01:02:39;;;;;;;33.47;21.73;;;77.10;2227.20;;;;;;5018498;28;20075;-88
2022/01/09 01:05:06;;;;;;;28.00;19.15;;;77.20;2227.20;;;;;;5018389;28;20424;-85
2022/01/09 01:07:32;;;;;;;39.38;25.35;;;77.10;2227.20;;;;;;5018430;28;20039;-84
2022/01/09 01:09:58;;;;;;;48.67;32.67;;;77.20;2227.20;;;;;;5018321;28;20049;-85
2022/01/09 01:12:26;;;;;;;30.02;19.90;;;77.20;2227.20;;;;;;5018522;28;20463;-85
2022/01/09 01:14:52;;;;;;;32.35;23.00;;;77.10;2227.20;;;;;;5018404;28;20025;-83
2022/01/09 01:17:18;;;;;;;37.08;23.88;;;77.00;2227.20;;;;;;5018563;28;20425;-84
2022/01/09 01:19:44;;;;;;;32.30;21.90;;;77.20;2227.20;;;;;;5018096;28;20022;-84
2022/01/09 01:22:10;;;;;;;32.30;23.88;;;77.00;2227.20;;;;;;5018275;28;20029;-85
2022/01/09 01:24:37;;;;;;;42.03;27.80;;;77.20;2227.20;;;;;;5018371;28;20034;-83
2022/01/09 01:27:03;;;;;;;34.95;22.38;;;77.20;2227.20;;;;;;5017914;28;20445;-85
2022/01/09 01:29:29;;;;;;;32.42;22.75;;;77.20;2227.20;;;;;;5017933;28;20060;-84
2022/01/09 01:31:55;;;;;;;30.08;20.95;;;77.20;2227.20;;;;;;5017583;28;20045;-84
2022/01/09 01:34:20;;;;;;;34.55;23.50;;;77.20;2227.20;;;;;;5017774;28;20048;-83
2022/01/09 01:36:46;;;;;;;35.30;24.90;;;77.30;2227.20;;;;;;5017913;28;20083;-84
2022/01/09 01:39:12;;;;;;;34.72;24.00;;;77.20;2227.20;;;;;;5018270;28;20064;-83
2022/01/09 01:41:38;;;;;;;37.58;25.52;;;77.30;2227.20;;;;;;5017729;28;20441;-85
2022/01/09 01:44:08;;;;;;;37.35;25.02;;;77.30;2227.20;;;;;;5017770;28;20025;-84
2022/01/09 01:46:33;;;;;;;37.78;24.33;;;77.30;2227.20;;;;;;5017859;28;20025;-87
2022/01/09 01:48:59;;;;;;;37.80;19.95;;;77.30;2227.20;;;;;;5017673;28;20021;-88
2022/01/09 01:51:25;;;;;;;31.08;19.00;;;77.30;2227.20;;;;;;5035537;28;20338;-82
2022/01/09 01:53:54;;;;;;;32.75;22.02;;;77.20;2227.20;;;;;;5017768;28;20052;-85
2022/01/09 01:56:21;;;;;;;25.00;19.30;;;77.10;2227.20;;;;;;5017428;28;20445;-85
2022/01/09 01:58:48;;;;;;;24.40;17.48;;;77.20;2227.20;;;;;;5017854;28;20535;-82
2022/01/09 02:01:14;;;;;;;28.15;17.45;;;77.20;2227.20;;;;;;5017397;28;20115;-84
2022/01/09 02:03:40;;;;;;;22.10;16.20;;;77.00;2227.20;;;;;;5017485;28;20439;-86
2022/01/09 02:06:06;;;;;;;27.50;17.67;;;77.20;2227.20;;;;;;5017321;28;20116;-84
2022/01/09 02:08:32;;;;;;;32.97;20.00;;;77.20;2227.20;;;;;;5017056;28;20047;-83
2022/01/09 02:10:58;;;;;;;35.53;22.25;;;77.20;2227.20;;;;;;5017495;28;20113;-85
2022/01/09 02:13:24;;;;;;;35.30;22.15;;;77.10;2227.20;;;;;;5017524;28;20045;-84
2022/01/09 02:15:49;;;;;;;36.83;21.50;;;77.10;2227.20;;;;;;5017111;28;20083;-86
2022/01/09 02:18:19;;;;;;;29.48;17.50;;;77.10;2227.20;;;;;;5017236;28;20105;-83
2022/01/09 02:20:46;;;;;;;23.25;17.05;;;77.10;2227.20;;;;;;5017288;28;20017;-86
2022/01/09 02:23:15;;;;;;;24.17;16.27;;;77.10;2227.20;;;;;;5017005;28;20025;-83
2022/01/09 02:25:41;;;;;;;31.65;22.08;;;77.00;2227.20;;;;;;5017110;28;20029;-84
2022/01/09 02:28:09;;;;;;;22.80;15.98;;;77.00;2227.20;;;;;;5017172;28;20464;-84
2022/01/09 02:30:35;;;;;;;24.55;17.30;;;77.00;2227.20;;;;;;5017421;28;20083;-83
2022/01/09 02:33:04;;;;;;;23.08;15.98;;;76.90;1920.00;;;;;;5023855;28;20029;-83
2022/01/09 02:35:30;;;;;;;21.42;16.20;;;77.00;1868.80;;;;;;5018457;28;20059;-83
2022/01/09 02:37:56;;;;;;;22.50;14.52;;;77.20;2227.20;;;;;;5017106;28;20441;-84
2022/01/09 02:40:23;;;;;;;22.25;16.23;;;77.00;2227.20;;;;;;5034606;28;20028;-82
2022/01/09 02:42:51;;;;;;;27.42;17.35;;;77.00;2227.20;;;;;;5016921;28;20100;-86
2022/01/09 02:45:22;;;;;;;22.83;16.85;;;77.10;1971.20;;;;;;5016643;28;20037;-85
2022/01/09 02:47:53;;;;;;;20.23;15.52;;;77.10;2227.20;;;;;;5016864;28;20060;-85
2022/01/09 02:52:54;;;;;;;24.20;17.30;;;77.10;2227.20;;;;;;5034486;28;20025;-84
2022/01/09 02:55:21;;;;;;;27.17;17.45;;;77.20;2227.20;;;;;;5016814;28;20075;-84
2022/01/09 02:57:51;;;;;;;23.40;16.58;;;77.20;2227.20;;;;;;5016613;28;20420;-83
2022/01/09 03:00:35;;;;;;;16.20;13.30;;;77.20;2227.20;;;;;;5017044;28;20087;-85
2022/01/09 03:03:01;;;;;;;24.40;18.08;;;77.10;2227.20;;;;;;5016803;28;20465;-82
2022/01/09 03:05:28;;;;;;;27.13;20.10;;;77.00;2227.20;;;;;;5016382;28;20461;-85
2022/01/09 03:07:53;;;;;;;24.85;17.58;;;77.20;2227.20;;;;;;5015916;28;20026;-84
2022/01/09 03:10:21;;;;;;;21.27;16.00;;;77.20;2227.20;;;;;;5016518;28;20162;-84
2022/01/09 03:12:48;;;;;;;24.58;17.75;;;77.20;2227.20;;;;;;5034039;28;20483;-84
2022/01/09 03:15:15;;;;;;;20.98;15.40;;;77.20;2227.20;;;;;;5016472;28;20364;-84
2022/01/09 03:17:41;;;;;;;21.98;15.98;;;77.30;2227.20;;;;;;5016500;28;20030;-83
2022/01/09 03:20:13;;;;;;;19.17;13.57;;;77.20;2227.20;;;;;;5016367;28;20036;-85
2022/01/09 03:22:39;;;;;;;19.88;14.73;;;77.20;2227.20;;;;;;5016611;28;20083;-85
2022/01/09 03:25:06;;;;;;;24.75;15.30;;;77.30;2227.20;;;;;;5016182;28;20033;-85
2022/01/09 03:27:32;;;;;;;23.88;16.40;;;77.30;2227.20;;;;;;5016281;28;20520;-86
2022/01/09 03:29:59;;;;;;;21.67;16.05;;;77.30;2227.20;;;;;;5016491;28;20108;-84
2022/01/09 03:32:25;;;;;;;22.92;17.08;;;77.30;2227.20;;;;;;5033911;28;20105;-86
2022/01/09 03:34:51;;;;;;;24.60;18.67;;;77.30;2227.20;;;;;;5016396;28;20116;-85
2022/01/09 03:37:17;;;;;;;26.63;17.75;;;77.30;2227.20;;;;;;5033907;28;20026;-85
2022/01/09 03:39:43;;;;;;;23.10;16.67;;;77.30;2227.20;;;;;;5015926;28;20066;-86
2022/01/09 03:42:08;;;;;;;23.70;17.52;;;77.30;2227.20;;;;;;5016267;28;20465;-84
2022/01/09 03:44:34;;;;;;;25.20;18.15;;;77.20;2227.20;;;;;;5015986;28;20171;-85
2022/01/09 03:47:00;;;;;;;27.67;18.50;;;77.00;2227.20;;;;;;5033342;28;20022;-86
2022/01/09 03:49:26;;;;;;;24.45;17.27;;;77.00;2227.20;;;;;;5016188;28;20441;-84
2022/01/09 03:51:53;;;;;;;21.55;16.20;;;77.10;2099.20;;;;;;5016314;28;20441;-83
2022/01/09 03:54:23;;;;;;;19.15;14.50;;;77.10;2227.20;;;;;;5016271;28;20025;-85
2022/01/09 03:56:50;;;;;;;19.08;14.43;;;77.30;2227.20;;;;;;5016122;28;20091;-83
2022/01/09 03:59:16;;;;;;;20.92;14.60;;;77.10;2227.20;;;;;;5016245;28;20029;-84
2022/01/09 04:01:42;;;;;;;21.95;16.92;;;77.20;2227.20;;;;;;5015776;28;20026;-84
2022/01/09 04:04:08;;;;;;;22.08;17.33;;;77.20;2227.20;;;;;;5015808;28;20112;-85
2022/01/09 04:06:34;;;;;;;17.55;12.93;;;77.20;2227.20;;;;;;5016119;28;20036;-84
2022/01/09 04:09:07;;;;;;;19.45;13.43;;;77.20;2227.20;;;;;;5033310;28;20464;-83
2022/01/09 04:11:38;;;;;;;21.45;15.55;;;77.10;2227.20;;;;;;5033717;28;20108;-85
2022/01/09 04:14:05;;;;;;;17.73;14.52;;;77.10;2227.20;;;;;;5015908;28;20112;-84
2022/01/09 04:16:31;;;;;;;18.25;13.75;;;77.10;2227.20;;;;;;5033574;28;20030;-86
2022/01/09 04:18:57;;;;;;;25.58;17.85;;;77.20;2227.20;;;;;;5016215;28;20527;-89
2022/01/09 04:21:22;;;;;;;21.65;15.20;;;77.20;2227.20;;;;;;5036744;28;20100;-85
2022/01/09 04:23:48;;;;;;;21.85;15.70;;;77.20;2227.20;;;;;;5037035;28;20045;-83
2022/01/09 04:26:14;;;;;;;23.80;16.92;;;77.20;2227.20;;;;;;5019354;28;20029;-82
2022/01/09 04:28:40;;;;;;;25.48;16.92;;;77.10;2227.20;;;;;;5036620;28;20028;-84
2022/01/09 04:31:06;;;;;;;26.42;17.33;;;77.00;2227.20;;;;;;5019067;28;20474;-84
2022/01/09 04:33:31;;;;;;;23.80;16.75;;;77.10;2227.20;;;;;;5019042;28;20018;-82
2022/01/09 04:35:57;;;;;;;31.20;21.42;;;77.10;2227.20;;;;;;5019001;28;20030;-85
2022/01/09 04:38:23;;;;;;;28.30;20.75;;;77.10;2227.20;;;;;;5019025;28;20047;-87
2022/01/09 04:40:49;;;;;;;30.73;20.77;;;77.10;2227.20;;;;;;5019003;28;20026;-86
2022/01/09 04:43:16;;;;;;;27.55;19.85;;;77.20;2227.20;;;;;;5019131;28;20386;-85
2022/01/09 04:45:42;;;;;;;29.55;21.15;;;77.20;2227.20;;;;;;5019062;28;20453;-86
2022/01/09 04:48:10;;;;;;;28.48;20.55;;;77.20;2227.20;;;;;;5019194;28;20392;-87
2022/01/09 04:50:37;;;;;;;28.67;19.40;;;77.20;2227.20;;;;;;5018954;28;20017;-86
2022/01/09 04:53:06;;;;;;;27.85;19.50;;;77.20;2227.20;;;;;;5019101;28;20021;-84
2022/01/09 04:55:46;;;;;;;28.77;19.73;;;77.10;2227.20;;;;;;5019055;28;20552;-85
2022/01/09 04:58:12;;;;;;;32.38;21.73;;;77.10;2227.20;;;;;;5019000;28;20449;-85
2022/01/09 05:00:41;;;;;;;32.40;21.48;;;77.20;2227.20;;;;;;5019069;28;20048;-88
2022/01/09 05:03:07;;;;;;;29.33;20.05;;;77.20;2227.20;;;;;;5018636;28;20116;-84
2022/01/09 05:05:33;;;;;;;30.83;21.25;;;77.20;2227.20;;;;;;5018698;28;20025;-87
2022/01/09 05:08:00;;;;;;;31.50;22.50;;;77.20;2227.20;;;;;;5018779;28;20022;-84
2022/01/09 05:10:25;;;;;;;37.42;23.92;;;77.10;2227.20;;;;;;5018581;28;20022;-84
2022/01/09 05:12:51;;;;;;;43.45;27.65;;;77.10;2227.20;;;;;;5018517;28;20025;-85
2022/01/09 05:15:19;;;;;;;37.55;27.23;;;77.20;2227.20;;;;;;5018545;28;20079;-85
2022/01/09 05:17:46;;;;;;;50.90;30.20;;;77.20;2227.20;;;;;;5018524;28;20022;-84
2022/01/09 05:20:12;;;;;;;55.55;33.00;;;77.20;2099.20;;;;;;5018498;28;20441;-86
2022/01/09 05:22:38;;;;;;;44.13;29.92;;;77.20;2227.20;;;;;;5018497;28;20025;-85
2022/01/09 05:25:08;;;;;;;42.47;29.85;;;77.20;2048.00;;;;;;5018209;28;20583;-86
2022/01/09 05:27:35;;;;;;;62.17;38.08;;;77.20;2227.20;;;;;;5018485;28;20116;-85
2022/01/09 05:30:03;;;;;;;55.30;34.53;;;77.20;2227.20;;;;;;5018449;28;20022;-86
2022/01/09 05:32:29;;;;;;;42.40;28.42;;;77.30;2227.20;;;;;;5017593;28;20029;-86
2022/01/09 05:34:55;;;;;;;35.25;22.77;;;77.20;2227.20;;;;;;5018103;28;20025;-85
2022/01/09 05:37:20;;;;;;;42.20;29.67;;;77.20;2227.20;;;;;;5018179;28;20079;-86
2022/01/09 05:39:46;;;;;;;48.53;32.40;;;77.20;2227.20;;;;;;5018277;28;20033;-85
2022/01/09 05:42:13;;;;;;;38.53;26.92;;;77.10;2227.20;;;;;;5017987;28;20424;-86
2022/01/09 05:44:39;;;;;;;36.80;26.05;;;77.20;2227.20;;;;;;5018212;28;20116;-85
2022/01/09 05:47:06;;;;;;;35.65;25.08;;;77.00;2227.20;;;;;;5017720;28;20018;-86
2022/01/09 05:49:32;;;;;;;46.35;31.35;;;77.10;2227.20;;;;;;5023309;28;20021;-84
2022/01/09 05:51:58;;;;;;;34.70;25.25;;;77.00;2227.20;;;;;;5019856;28;20032;-85
2022/01/09 05:54:23;;;;;;;37.65;24.77;;;76.80;2227.20;;;;;;5017875;28;20021;-86
2022/01/09 05:56:51;;;;;;;40.30;28.05;;;76.80;2227.20;;;;;;5017790;28;20120;-84
2022/01/09 05:59:18;;;;;;;38.65;26.42;;;52.00;2227.20;;;;;;5035030;28;20017;-84
2022/01/09 06:01:45;;;;;;;42.33;30.02;;;52.10;2227.20;;;;;;5017854;28;20021;-85
2022/01/09 06:04:11;;;;;;;40.85;28.58;;;52.10;2227.20;;;;;;5017483;28;20028;-86
2022/01/09 06:06:36;;;;;;;47.80;32.88;;;76.80;2227.20;;;;;;5017480;28;20025;-86
2022/01/09 06:09:03;;;;;;;40.40;26.25;;;51.90;2227.20;;;;;;5017386;28;20458;-86
2022/01/09 06:11:29;;;;;;;42.65;27.05;;;51.80;2227.20;;;;;;5017689;28;20021;-84
2022/01/09 06:13:55;;;;;;;39.53;26.17;;;51.80;2227.20;;;;;;5017324;28;20032;-85
2022/01/09 06:16:22;;;;;;;46.45;31.67;;;51.60;2227.20;;;;;;5017315;28;20029;-84
2022/01/09 06:18:48;;;;;;;45.33;28.73;;;51.60;2227.20;;;;;;5017307;28;20071;-85
2022/01/09 06:21:14;;;;;;;59.22;36.97;;;51.60;2227.20;;;;;;5017174;28;20025;-85
2022/01/09 06:23:40;;;;;;;51.85;32.67;;;51.70;2227.20;;;;;;5017342;28;20357;-86
2022/01/09 06:26:05;;;;;;;53.97;35.63;;;51.70;2227.20;;;;;;5017230;28;20101;-86
2022/01/09 06:28:31;;;;;;;46.25;29.00;;;51.80;2227.20;;;;;;5016856;28;20032;-85
2022/01/09 06:30:57;;;;;;;48.50;31.23;;;51.70;2227.20;;;;;;5017252;28;20032;-87
2022/01/09 06:33:23;;;;;;;63.03;43.03;;;51.80;2227.20;;;;;;5017016;28;20021;-85
2022/01/09 06:35:49;;;;;;;54.60;36.75;;;51.70;2227.20;;;;;;5017019;28;20026;-86
2022/01/09 06:38:15;;;;;;;51.08;32.60;;;51.60;2227.20;;;;;;5017105;28;20025;-86
2022/01/09 06:40:40;;;;;;;49.38;29.83;;;51.70;2227.20;;;;;;5034804;28;20022;-87
2022/01/09 06:43:07;;;;;;;53.40;33.40;;;51.70;2227.20;;;;;;5016192;28;20021;-87
2022/01/09 06:45:33;;;;;;;45.88;32.25;;;51.70;2227.20;;;;;;5034279;28;20410;-87
2022/01/09 06:47:59;;;;;;;54.33;32.60;;;51.80;2227.20;;;;;;5034582;28;20506;-85
2022/01/09 06:50:26;;;;;;;49.03;31.45;;;51.70;2227.20;;;;;;5017001;28;20022;-85
2022/01/09 06:52:52;;;;;;;46.72;30.63;;;51.70;2227.20;;;;;;5016913;28;20098;-86
2022/01/09 06:55:18;;;;;;;59.65;36.17;;;51.60;2227.20;;;;;;5016885;28;20029;-88
2022/01/09 06:57:44;;;;;;;58.28;36.22;;;51.60;2227.20;;;;;;5017100;28;20052;-85
2022/01/09 07:00:12;;;;;;;57.97;38.17;;;51.60;2227.20;;;;;;5016991;28;20061;-86
2022/01/09 07:02:38;;;;;;;56.38;35.67;;;51.70;2227.20;;;;;;5016932;28;20022;-85
2022/01/09 07:05:05;;;;;;;54.72;34.70;;;51.70;2227.20;;;;;;5016874;28;20033;-86
2022/01/09 07:07:31;;;;;;;65.90;39.25;;;51.70;2227.20;;;;;;5017021;28;20472;-85
2022/01/09 07:09:56;;;;;;;61.88;37.78;;;51.70;2227.20;;;;;;5016659;28;20125;-87
2022/01/09 07:12:22;;;;;;;65.20;42.58;;;51.70;2227.20;;;;;;5016701;28;20025;-85
2022/01/09 07:14:48;;;;;;;59.67;38.22;;;51.90;2227.20;;;;;;5016572;28;20486;-84
2022/01/09 07:17:14;;;;;;;49.10;32.10;;;51.80;2227.20;;;;;;5016596;28;20442;-84
2022/01/09 07:19:40;;;;;;;57.15;37.10;;;51.90;2227.20;;;;;;5016570;28;20021;-85
2022/01/09 07:22:06;;;;;;;60.03;37.28;;;52.00;2227.20;;;;;;5016169;28;20072;-85
2022/01/09 07:24:32;;;;;;;62.33;39.28;;;52.00;2227.20;;;;;;5016375;28;20033;-86
2022/01/09 07:26:58;;;;;;;67.28;40.42;;;76.90;2227.20;;;;;;5016579;28;20021;-85
2022/01/09 07:29:24;;;;;;;56.65;37.25;;;52.00;2227.20;;;;;;5016495;28;20079;-84
2022/01/09 07:31:53;;;;;;;56.67;35.13;;;52.10;2227.20;;;;;;5016291;28;20026;-86
2022/01/09 07:34:20;;;;;;;51.50;35.75;;;76.80;2227.20;;;;;;5034428;28;20167;-86
2022/01/09 07:36:46;;;;;;;53.72;36.53;;;76.80;2227.20;;;;;;5016406;28;20032;-86
2022/01/09 07:39:12;;;;;;;59.97;38.92;;;76.80;2227.20;;;;;;5016612;28;20076;-86
2022/01/09 07:41:38;;;;;;;64.13;38.90;;;76.80;2227.20;;;;;;5016474;28;20018;-88
2022/01/09 07:44:05;;;;;;;63.65;41.30;;;76.80;2227.20;;;;;;5016181;28;20123;-88
2022/01/09 07:46:30;;;;;;;73.47;44.80;;;76.80;2227.20;;;;;;5016518;28;20454;-87
2022/01/09 07:48:56;;;;;;;91.45;50.50;;;52.10;2227.20;;;;;;5016609;28;20029;-90
2022/01/09 07:51:22;;;;;;;96.88;61.03;;;52.00;2227.20;;;;;;5016519;28;20026;-87
2022/01/09 07:53:48;;;;;;;81.13;47.67;;;51.90;2227.20;;;;;;5017051;28;20074;-85
2022/01/09 07:56:14;;;;;;;103.38;61.03;;;52.00;2227.20;;;;;;5020349;28;20054;-86
2022/01/09 07:58:40;;;;;;;92.03;51.78;;;52.00;2227.20;;;;;;5020240;28;20342;-85
2022/01/09 08:01:05;;;;;;;86.00;58.63;;;51.90;2227.20;;;;;;5019870;28;20022;-88
2022/01/09 08:03:31;;;;;;;124.65;84.47;;;51.90;2227.20;;;;;;5020193;28;20025;-86
2022/01/09 08:05:57;;;;;;;90.70;56.10;;;51.90;2227.20;;;;;;5019896;28;20029;-87
2022/01/09 08:08:23;;;;;;;160.90;92.45;;;51.90;2227.20;;;;;;5019881;28;20455;-86
2022/01/09 08:10:49;;;;;;;204.45;119.85;;;51.80;2227.20;;;;;;5020003;28;20457;-87
2022/01/09 08:13:15;;;;;;;140.45;87.45;;;51.80;2227.20;;;;;;5037404;28;20093;-86
2022/01/09 08:15:40;;;;;;;173.10;101.25;;;51.70;2227.20;;;;;;5019579;28;20029;-86
2022/01/09 08:18:06;;;;;;;99.70;62.05;;;51.60;2227.20;;;;;;5019968;28;20105;-88
2022/01/09 08:20:32;;;;;;;283.60;151.23;;;51.70;2227.20;;;;;;5019775;28;20537;-87
2022/01/09 08:22:59;;;;;;;195.52;112.47;;;51.80;2227.20;;;;;;5019758;28;20108;-87
2022/01/09 08:25:24;;;;;;;135.68;80.63;;;51.70;2227.20;;;;;;5019717;28;20029;-88
2022/01/09 08:27:51;;;;;;;150.85;92.30;;;51.70;2227.20;;;;;;5019782;28;20437;-86
2022/01/09 08:30:20;;;;;;;318.10;180.80;;;51.80;2227.20;;;;;;5019554;28;20032;-87
2022/01/09 08:32:47;;;;;;;295.30;165.05;;;51.80;2227.20;;;;;;5019721;28;20059;-85
2022/01/09 08:35:13;;;;;;;424.60;242.25;;;51.80;2227.20;;;;;;5037275;28;20017;-87
2022/01/09 08:37:42;;;;;;;135.75;82.28;;;51.90;2227.20;;;;;;5019102;28;20013;-89
2022/01/09 08:40:13;;;;;;;134.80;77.25;;;52.00;2227.20;;;;;;5019296;28;20424;-85
2022/01/09 08:42:40;;;;;;;174.95;114.35;;;52.00;2227.20;;;;;;5019582;28;20030;-87
2022/01/09 08:45:07;;;;;;;103.53;71.28;;;52.10;2227.20;;;;;;5036866;28;20036;-88
2022/01/09 08:47:37;;;;;;;86.07;57.05;;;52.10;2227.20;;;;;;5019123;28;20018;-85
2022/01/09 08:50:05;;;;;;;66.65;44.33;;;76.80;2227.20;;;;;;5019199;28;20029;-87
2022/01/09 08:52:30;;;;;;;66.47;40.92;;;52.10;2227.20;;;;;;5019225;28;20021;-87
2022/01/09 08:54:56;;;;;;;60.55;39.40;;;76.80;2227.20;;;;;;5018929;28;20056;-85
2022/01/09 08:57:25;;;;;;;70.85;43.13;;;52.10;2227.20;;;;;;5018995;28;20049;-86
2022/01/09 08:59:50;;;;;;;65.93;42.90;;;76.80;2150.40;;;;;;5018830;28;20026;-87
2022/01/09 09:02:16;;;;;;;55.67;39.10;;;76.80;2227.20;;;;;;5036177;28;20463;-82
2022/01/09 09:04:42;;;;;;;64.30;40.20;;;76.80;2227.20;;;;;;5018655;28;20120;-85
2022/01/09 09:07:08;;;;;;;65.00;46.03;;;76.80;2227.20;;;;;;5018180;28;20021;-87
2022/01/09 09:09:37;;;;;;;70.55;47.38;;;76.80;2227.20;;;;;;5018154;28;20068;-87
2022/01/09 09:12:04;;;;;;;85.10;54.22;;;76.80;2227.20;;;;;;5035884;28;20021;-86
2022/01/09 09:14:31;;;;;;;73.20;50.08;;;76.80;2227.20;;;;;;5018375;28;20025;-86
2022/01/09 09:16:59;;;;;;;69.35;45.50;;;76.80;2227.20;;;;;;5018165;28;20056;-85
2022/01/09 09:19:34;;;;;;;107.65;64.93;;;76.80;2227.20;;;;;;5018344;28;20468;-86
2022/01/09 09:22:00;;;;;;;78.53;50.95;;;76.80;2227.20;;;;;;5017971;28;20461;-84
2022/01/09 09:24:26;;;;;;;81.75;53.90;;;52.10;2227.20;;;;;;5017468;28;20028;-87
2022/01/09 09:26:54;;;;;;;77.50;53.50;;;52.10;2227.20;;;;;;5017527;28;20025;-80
2022/01/09 09:29:20;;;;;;;73.22;45.63;;;52.10;2227.20;;;;;;5014959;28;20017;-85
2022/01/09 09:31:52;;;;;;;76.60;45.80;;;77.40;2227.20;;;;;;5017415;28;20465;-86
2022/01/09 09:34:20;;;;;;;73.28;45.40;;;52.10;2227.20;;;;;;5017838;28;20036;-88
2022/01/09 09:36:55;;;;;;;65.40;42.53;;;76.80;2227.20;;;;;;5017357;28;20059;-86
2022/01/09 09:39:21;;;;;;;68.55;43.70;;;76.80;2227.20;;;;;;5017787;28;20075;-85
2022/01/09 09:41:55;;;;;;;68.85;43.40;;;52.00;2227.20;;;;;;5017324;28;20464;-83
2022/01/09 09:44:21;;;;;;;78.90;48.22;;;52.10;2227.20;;;;;;5017752;28;20108;-87
2022/01/09 09:46:49;;;;;;;65.88;44.78;;;52.00;2150.40;;;;;;5017845;28;20120;-84
2022/01/09 09:49:18;;;;;;;67.20;43.65;;;76.80;2227.20;;;;;;5035341;28;20080;-85
2022/01/09 09:51:44;;;;;;;100.25;58.88;;;52.10;2227.20;;;;;;5017465;28;20026;-84
2022/01/09 09:54:10;;;;;;;68.90;45.08;;;76.80;2227.20;;;;;;5017743;28;20117;-87
2022/01/09 09:56:36;;;;;;;79.03;51.42;;;76.80;2227.20;;;;;;5017241;28;20449;-85
2022/01/09 09:59:02;;;;;;;62.15;43.33;;;52.10;2227.20;;;;;;5017325;28;20041;-87
2022/01/09 10:01:35;;;;;;;86.40;50.05;;;52.10;2227.20;;;;;;5017423;28;20052;-87
2022/01/09 10:04:07;;;;;;;83.20;54.38;;;52.10;1868.80;;;;;;5017343;28;20025;-86
2022/01/09 10:06:45;;;;;;;97.50;62.25;;;76.80;2227.20;;;;;;5017495;28;20025;-86
2022/01/09 10:09:15;;;;;;;101.15;62.15;;;76.90;2227.20;;;;;;5015793;28;20068;-84
2022/01/09 10:11:55;;;;;;;90.10;57.67;;;76.90;2227.20;;;;;;5016970;28;20407;-84
2022/01/09 10:14:29;;;;;;;74.72;49.63;;;76.90;2227.20;;;;;;5035123;28;20102;-84
2022/01/09 10:17:10;;;;;;;71.43;47.33;;;76.90;2227.20;;;;;;5017242;28;20449;-87
2022/01/09 10:19:51;;;;;;;77.78;49.75;;;76.90;2227.20;;;;;;5017842;28;20021;-84
2022/01/09 10:22:40;;;;;;;83.15;52.97;;;76.80;2227.20;;;;;;5029822;28;20053;-84
2022/01/09 10:25:36;;;;;;;69.05;44.10;;;76.90;2227.20;;;;;;5025296;28;20083;-84
2022/01/09 10:28:12;;;;;;;77.22;49.75;;;76.90;2227.20;;;;;;5013962;28;20029;-84
2022/01/09 10:30:51;;;;;;;77.70;48.80;;;76.90;2227.20;;;;;;5016998;28;20475;-86
2022/01/09 10:33:21;;;;;;;72.82;44.58;;;77.10;2227.20;;;;;;5016779;28;20018;-88
2022/01/09 10:35:48;;;;;;;71.60;45.60;;;77.20;2227.20;;;;;;5016990;28;20056;-86
2022/01/09 10:38:22;;;;;;;95.70;64.03;;;77.00;2227.20;;;;;;5016762;28;20559;-86
2022/01/09 10:41:01;;;;;;;60.80;40.88;;;76.80;2227.20;;;;;;5016369;28;20116;-86
2022/01/09 10:43:33;;;;;;;68.35;43.58;;;76.80;2227.20;;;;;;5016625;28;20022;-85
2022/01/09 10:46:01;;;;;;;71.80;49.60;;;76.80;2227.20;;;;;;5016511;28;20025;-84
2022/01/09 10:48:43;;;;;;;49.45;31.63;;;77.00;2227.20;;;;;;5016631;28;20037;-83
2022/01/09 10:51:24;;;;;;;70.50;43.67;;;76.90;2227.20;;;;;;5033967;28;20096;-82
2022/01/09 10:54:07;;;;;;;92.65;59.63;;;76.90;2227.20;;;;;;5015838;28;20025;-84
2022/01/09 10:59:40;;;;;;;109.57;75.07;;;76.90;2227.20;;;;;;5033926;28;20022;-85
2022/01/09 11:02:25;;;;;;;90.50;55.10;;;77.10;2227.20;;;;;;5016486;28;20017;-85
2022/01/09 11:05:08;;;;;;;86.97;52.65;;;77.10;2227.20;;;;;;5016410;28;20025;-84
2022/01/09 11:07:34;;;;;;;86.15;55.17;;;77.40;2227.20;;;;;;5015303;28;20036;-85
2022/01/09 11:10:17;;;;;;;84.40;53.10;;;77.00;2227.20;;;;;;5013240;28;20103;-86
2022/01/09 11:12:48;;;;;;;;;;;77.00;2227.20;;;;;;5012874;28;20017;-85
2022/01/09 11:15:22;;;;;;;91.32;55.63;;;77.00;2227.20;;;;;;5012474;28;19902;-87
2022/01/09 11:21:54;;;;;;;104.40;65.97;;;77.00;2227.20;;;;;;4934192;29;20042;-84
2022/01/09 11:24:57;;;;;;;91.75;59.70;;;77.10;2022.40;;;;;;4913721;29;20469;-87
2022/01/09 11:28:13;;;;;;;82.05;53.38;;;77.40;2227.20;;;;;;4924267;29;20035;-82
2022/01/09 11:31:07;;;;;;;100.95;66.00;;;77.30;2227.20;;;;;;4964436;28;20478;-86
2022/01/09 11:44:47;;;;;;;79.00;45.17;;;77.40;2227.20;;;;;;4957198;29;20080;-83
2022/01/09 11:47:26;;;;;;;71.97;47.75;;;77.50;2227.20;;;;;;4961402;28;20030;-85
2022/01/09 11:50:21;;;;;;;;;;;;;;;;;;;;;
2022/01/09 11:53:04;;;;;;;74.57;49.00;;;77.60;2227.20;;;;;;5010338;28;20037;-83
2022/01/09 11:55:44;;;;;;;103.95;65.75;;;77.60;2227.20;;;;;;5016612;28;20117;-85
2022/01/09 11:58:11;;;;;;;77.13;52.97;;;77.70;2227.20;;;;;;5015904;28;20022;-85
2022/01/09 12:00:45;;;;;;;77.53;50.33;;;102.40;2227.20;;;;;;5032993;28;20390;-88
2022/01/09 12:03:30;;;;;;;90.97;56.47;;;102.50;2099.20;;;;;;5017021;28;20405;-84
2022/01/09 12:06:06;;;;;;;71.80;48.78;;;102.50;2227.20;;;;;;5016327;28;20018;-84
2022/01/09 12:08:53;;;;;;;65.25;47.25;;;102.50;2150.40;;;;;;5016218;28;20034;-83
2022/01/09 12:11:19;;;;;;;77.25;50.78;;;102.50;2227.20;;;;;;5016040;28;20026;-83
2022/01/09 12:13:47;;;;;;;60.97;43.65;;;102.50;2227.20;;;;;;5016413;28;20030;-78
2022/01/09 12:16:45;;;;;;;61.05;44.40;;;102.50;2227.20;;;;;;5032168;28;20018;-82
2022/01/09 12:19:11;;;;;;;86.72;49.30;;;102.50;2227.20;;;;;;5016595;28;20018;-83
2022/01/09 12:21:42;;;;;;;94.65;54.20;;;102.50;2227.20;;;;;;5000052;28;20032;-80
2022/01/09 12:24:42;;;;;;;68.55;44.15;;;102.60;2227.20;;;;;;4999349;28;20084;-86
2022/01/09 12:27:41;;;;;;;69.65;46.50;;;102.50;2227.20;;;;;;4999540;28;20469;-81
2022/01/09 12:30:09;;;;;;;67.10;44.25;;;102.50;2227.20;;;;;;5017091;28;20022;-84
2022/01/09 12:32:44;;;;;;;61.50;44.10;;;102.60;2227.20;;;;;;4999304;28;20029;-83
2022/01/09 12:35:18;;;;;;;62.10;41.30;;;102.70;2227.20;;;;;;4999434;28;20025;-85
2022/01/09 12:37:49;;;;;;;65.18;43.92;;;102.60;2227.20;;;;;;4999544;28;20068;-82